createdAt,value
2019-03-05T00:01:20.285Z,99.90
2019-03-05T00:03:49.207Z,99.90
2019-03-05T00:06:19.436Z,99.90
2019-03-05T00:08:48.365Z,99.90
2019-03-05T00:11:17.284Z,99.90
2019-03-05T00:13:46.117Z,99.90
2019-03-05T00:16:15.048Z,99.90
2019-03-05T00:18:43.926Z,99.90
2019-03-05T00:21:12.845Z,99.90
2019-03-05T00:23:56.902Z,99.90
2019-03-05T00:26:31.895Z,99.90
2019-03-05T00:29:47.853Z,99.90
2019-03-05T00:32:16.794Z,99.90
2019-03-05T00:35:28.520Z,99.90
2019-03-05T00:38:31.410Z,99.90
2019-03-05T00:41:16.309Z,99.90
2019-03-05T00:44:32.421Z,99.90
2019-03-05T00:47:45.321Z,99.90
2019-03-05T00:50:39.145Z,99.90
2019-03-05T00:53:20.996Z,99.90
2019-03-05T00:56:36.955Z,99.90
2019-03-05T00:59:23.097Z,99.90
2019-03-05T01:02:01.669Z,99.90
2019-03-05T01:05:13.503Z,99.90
2019-03-05T01:07:42.388Z,99.90
2019-03-05T01:10:12.662Z,99.90
2019-03-05T01:12:42.758Z,99.90
2019-03-05T01:15:12.046Z,99.90
2019-03-05T01:17:40.892Z,99.90
2019-03-05T01:20:10.371Z,99.90
2019-03-05T01:22:39.394Z,99.90
2019-03-05T01:25:21.840Z,99.90
2019-03-05T01:27:50.694Z,99.90
2019-03-05T01:30:48.254Z,99.90
2019-03-05T01:33:17.322Z,99.90
2019-03-05T01:35:56.124Z,99.90
2019-03-05T01:38:25.096Z,99.90
2019-03-05T01:41:01.264Z,99.90
2019-03-05T01:43:30.256Z,99.90
2019-03-05T01:45:59.314Z,99.90
2019-03-05T01:48:28.245Z,99.90
2019-03-05T01:50:57.141Z,99.90
2019-03-05T01:53:26.067Z,99.90
2019-03-05T01:55:55.083Z,99.90
2019-03-05T01:58:23.925Z,99.90
2019-03-05T02:00:52.976Z,99.90
2019-03-05T02:03:21.894Z,99.90
2019-03-05T02:05:50.871Z,99.90
2019-03-05T02:08:19.867Z,99.90
2019-03-05T02:10:48.844Z,99.90
2019-03-05T02:13:17.933Z,99.90
2019-03-05T02:15:46.759Z,99.90
2019-03-05T02:18:20.158Z,99.90
2019-03-05T02:20:49.233Z,99.90
2019-03-05T02:23:51.542Z,99.90
2019-03-05T02:26:52.593Z,99.90
2019-03-05T02:29:54.008Z,99.90
2019-03-05T02:33:13.431Z,99.90
2019-03-05T02:36:05.084Z,99.90
2019-03-05T02:39:16.250Z,99.90
2019-03-05T02:41:57.529Z,99.90
2019-03-05T02:44:35.945Z,99.90
2019-03-05T02:47:33.361Z,99.90
2019-03-05T02:50:42.014Z,99.90
2019-03-05T02:53:34.976Z,99.90
2019-03-05T02:56:40.809Z,99.90
2019-03-05T02:59:08.312Z,99.90
2019-03-05T03:01:47.064Z,99.90
2019-03-05T03:04:18.312Z,99.90
2019-03-05T03:06:47.221Z,99.90
2019-03-05T03:10:07.264Z,99.90
2019-03-05T03:12:36.194Z,99.90
2019-03-05T03:15:07.635Z,99.90
2019-03-05T03:17:36.543Z,99.90
2019-03-05T03:20:06.126Z,99.90
2019-03-05T03:22:34.951Z,99.90
2019-03-05T03:25:04.047Z,99.90
2019-03-05T03:27:32.924Z,99.90
2019-03-05T03:30:01.786Z,99.90
2019-03-05T03:32:30.652Z,99.90
2019-03-05T03:34:59.538Z,99.90
2019-03-05T03:37:28.469Z,99.90
2019-03-05T03:39:57.298Z,99.90
2019-03-05T03:42:26.475Z,99.90
2019-03-05T03:44:55.400Z,99.90
2019-03-05T03:47:24.367Z,99.90
2019-03-05T03:49:53.269Z,99.90
2019-03-05T03:52:22.204Z,99.90
2019-03-05T03:54:51.108Z,99.90
2019-03-05T03:57:20.101Z,99.90
2019-03-05T03:59:49.094Z,99.90
2019-03-05T04:02:18.077Z,99.90
2019-03-05T04:04:47.073Z,99.90
2019-03-05T04:07:15.968Z,99.90
2019-03-05T04:09:44.802Z,99.90
2019-03-05T04:12:13.707Z,99.90
2019-03-05T04:14:42.607Z,99.90
2019-03-05T04:17:11.436Z,99.90
2019-03-05T04:19:40.341Z,99.90
2019-03-05T04:22:09.193Z,99.90
2019-03-05T04:24:38.048Z,99.90
2019-03-05T04:27:06.884Z,99.90
2019-03-05T04:29:35.750Z,99.90
2019-03-05T04:32:04.717Z,99.90
2019-03-05T04:34:33.554Z,99.90
2019-03-05T04:37:02.403Z,99.90
2019-03-05T04:39:31.244Z,99.90
2019-03-05T04:42:00.080Z,99.90
2019-03-05T04:44:34.104Z,99.90
2019-03-05T04:47:02.996Z,99.90
2019-03-05T04:50:03.300Z,99.90
2019-03-05T04:52:34.820Z,99.90
2019-03-05T04:55:03.878Z,99.90
2019-03-05T04:57:32.797Z,99.90
2019-03-05T05:00:01.703Z,99.90
2019-03-05T05:02:30.521Z,99.90
2019-03-05T05:04:59.448Z,99.90
2019-03-05T05:07:28.369Z,99.90
2019-03-05T05:09:57.226Z,99.90
2019-03-05T05:12:26.076Z,99.90
2019-03-05T05:14:54.964Z,99.90
2019-03-05T05:17:23.800Z,99.90
2019-03-05T05:19:52.724Z,99.90
2019-03-05T05:22:21.563Z,99.90
2019-03-05T05:24:50.396Z,99.90
2019-03-05T05:27:19.279Z,99.90
2019-03-05T05:29:48.077Z,99.90
2019-03-05T05:32:16.908Z,99.90
2019-03-05T05:34:45.751Z,99.90
2019-03-05T05:37:14.668Z,99.90
2019-03-05T05:40:19.883Z,99.90
2019-03-05T05:42:48.721Z,99.90
2019-03-05T05:45:19.292Z,99.90
2019-03-05T05:47:48.361Z,99.90
2019-03-05T05:50:17.452Z,99.90
2019-03-05T05:52:46.300Z,99.90
2019-03-05T05:55:15.230Z,99.90
2019-03-05T05:57:44.060Z,99.90
2019-03-05T06:00:14.791Z,99.90
2019-03-05T06:02:43.793Z,99.90
2019-03-05T06:05:12.764Z,99.90
2019-03-05T06:07:41.745Z,99.90
2019-03-05T06:10:10.872Z,99.90
2019-03-05T06:12:39.900Z,99.90
2019-03-05T06:15:09.673Z,99.90
2019-03-05T06:17:38.666Z,99.90
2019-03-05T06:20:09.399Z,99.90
2019-03-05T06:22:38.311Z,99.90
2019-03-05T06:25:07.360Z,99.90
2019-03-05T06:27:36.333Z,99.90
2019-03-05T06:30:06.201Z,99.90
2019-03-05T06:32:35.051Z,99.90
2019-03-05T06:35:04.496Z,99.90
2019-03-05T06:37:33.474Z,99.90
2019-03-05T06:40:02.338Z,99.90
2019-03-05T06:42:31.258Z,99.90
2019-03-05T06:45:00.173Z,99.90
2019-03-05T06:47:29.032Z,99.90
2019-03-05T06:49:57.872Z,99.90
2019-03-05T06:52:26.717Z,99.90
2019-03-05T06:54:55.648Z,99.90
2019-03-05T06:57:24.573Z,99.90
2019-03-05T06:59:53.485Z,99.90
2019-03-05T07:02:22.437Z,99.90
2019-03-05T07:04:57.237Z,99.90
2019-03-05T07:07:28.641Z,99.90
2019-03-05T07:10:02.423Z,99.90
2019-03-05T07:12:51.473Z,99.90
2019-03-05T07:16:16.596Z,99.90
2019-03-05T07:18:55.538Z,99.90
2019-03-05T07:21:50.233Z,99.90
2019-03-05T07:24:42.125Z,99.90
2019-03-05T07:27:11.661Z,99.90
2019-03-05T07:29:41.445Z,99.90
2019-03-05T07:32:10.460Z,99.90
2019-03-05T07:34:41.792Z,99.90
2019-03-05T07:37:12.164Z,99.90
2019-03-05T07:39:41.040Z,99.90
2019-03-05T07:42:09.952Z,99.90
2019-03-05T07:44:38.861Z,99.90
2019-03-05T07:47:07.789Z,99.90
2019-03-05T07:49:43.899Z,99.90
2019-03-05T07:52:07.304Z,99.90
2019-03-05T07:54:36.237Z,99.90
2019-03-05T07:57:05.288Z,99.90
2019-03-05T07:59:34.112Z,99.90
2019-03-05T08:02:03.036Z,99.90
2019-03-05T08:04:31.854Z,99.90
2019-03-05T08:07:00.755Z,99.90
2019-03-05T08:09:37.273Z,99.90
2019-03-05T08:12:47.633Z,99.90
2019-03-05T08:15:32.590Z,99.90
2019-03-05T08:18:01.781Z,99.90
2019-03-05T08:20:30.776Z,99.90
2019-03-05T08:22:59.706Z,99.90
2019-03-05T08:25:28.533Z,99.90
2019-03-05T08:27:57.428Z,99.90
2019-03-05T08:30:26.352Z,99.90
2019-03-05T08:32:55.335Z,99.90
2019-03-05T08:35:24.271Z,99.90
2019-03-05T08:37:53.221Z,99.90
2019-03-05T08:40:22.294Z,99.90
2019-03-05T08:42:51.285Z,99.90
2019-03-05T08:45:28.797Z,99.90
2019-03-05T08:47:52.193Z,99.90
2019-03-05T08:50:22.108Z,99.90
2019-03-05T08:52:51.143Z,99.90
2019-03-05T08:55:20.109Z,99.90
2019-03-05T08:57:48.957Z,98.10
2019-03-05T09:00:18.422Z,98.10
2019-03-05T09:02:48.871Z,98.10
2019-03-05T09:05:19.242Z,97.10
2019-03-05T09:07:49.271Z,97.80
2019-03-05T09:10:19.713Z,97.40
2019-03-05T09:12:48.728Z,96.90
2019-03-05T09:15:18.003Z,95.90
2019-03-05T09:17:47.088Z,94.70
2019-03-05T09:20:16.643Z,93.80
2019-03-05T09:22:45.632Z,92.10
2019-03-05T09:25:15.433Z,92.40
2019-03-05T09:27:44.438Z,92.20
2019-03-05T09:30:16.526Z,91.20
2019-03-05T09:32:45.532Z,93.40
2019-03-05T09:35:14.923Z,91.90
2019-03-05T09:37:43.943Z,94.00
2019-03-05T09:40:15.795Z,93.40
2019-03-05T09:42:44.771Z,92.80
2019-03-05T09:45:15.404Z,93.00
2019-03-05T09:47:44.297Z,92.50
2019-03-05T09:50:18.758Z,92.30
2019-03-05T09:52:54.767Z,92.00
2019-03-05T09:55:20.276Z,92.40
2019-03-05T09:58:11.920Z,91.90
2019-03-05T10:00:44.043Z,90.40
2019-03-05T10:03:13.068Z,90.80
2019-03-05T10:05:47.378Z,90.00
2019-03-05T10:08:17.720Z,89.40
2019-03-05T10:11:17.362Z,84.70
2019-03-05T10:13:50.252Z,82.60
2019-03-05T10:16:36.702Z,83.40
2019-03-05T10:19:14.716Z,82.80
2019-03-05T10:21:46.528Z,80.50
2019-03-05T10:24:29.996Z,77.60
2019-03-05T10:27:28.566Z,75.40
2019-03-05T10:30:10.126Z,74.70
2019-03-05T10:35:53.364Z,75.10
2019-03-05T10:38:23.806Z,72.30
2019-03-05T10:40:54.275Z,71.70
2019-03-05T10:43:48.030Z,71.50
2019-03-05T10:46:40.145Z,71.00
2019-03-05T10:49:13.489Z,71.40
2019-03-05T10:52:29.428Z,71.80
2019-03-05T10:56:03.351Z,71.50
2019-03-05T10:58:45.442Z,69.40
2019-03-05T11:01:17.289Z,68.30
2019-03-05T11:04:02.004Z,67.30
2019-03-05T11:06:31.754Z,68.80
2019-03-05T11:09:02.719Z,66.70
2019-03-05T11:11:33.849Z,66.10
2019-03-05T11:14:02.893Z,67.30
2019-03-05T11:16:34.376Z,67.00
2019-03-05T11:19:04.600Z,66.00
2019-03-05T11:21:35.539Z,66.70
2019-03-05T11:24:08.133Z,66.70
2019-03-05T11:26:38.937Z,64.50
2019-03-05T11:29:12.389Z,64.20
2019-03-05T11:31:56.128Z,63.40
2019-03-05T11:34:27.749Z,62.30
2019-03-05T11:37:03.197Z,62.30
2019-03-05T11:39:38.889Z,61.40
2019-03-05T11:42:14.133Z,61.60
2019-03-05T11:45:06.916Z,60.40
2019-03-05T11:47:28.165Z,60.20
2019-03-05T11:50:37.960Z,58.80
2019-03-05T11:53:09.484Z,57.90
2019-03-05T11:55:41.725Z,57.30
2019-03-05T11:58:13.526Z,58.50
2019-03-05T12:08:44.181Z,58.80
2019-03-05T12:27:10.639Z,57.80
2019-03-05T12:30:33.546Z,58.50
2019-03-05T12:45:16.137Z,57.30
2019-03-05T12:47:57.598Z,56.30
2019-03-05T12:50:33.246Z,56.30
2019-03-05T12:53:03.624Z,56.90
2019-03-05T12:58:27.644Z,56.40
2019-03-05T13:01:10.283Z,56.40
2019-03-05T13:03:55.957Z,56.80
2019-03-05T13:06:58.976Z,57.50
2019-03-05T13:09:34.467Z,55.60
2019-03-05T13:12:06.113Z,56.50
2019-03-05T13:14:38.234Z,56.00
2019-03-05T13:17:18.165Z,55.60
2019-03-05T13:19:54.145Z,56.50
2019-03-05T13:22:34.307Z,55.40
2019-03-05T13:25:13.542Z,54.10
2019-03-05T13:27:47.150Z,55.10
2019-03-05T13:30:27.633Z,56.10
2019-03-05T13:33:07.363Z,56.00
2019-03-05T13:35:37.988Z,55.50
2019-03-05T13:38:09.704Z,56.60
2019-03-05T13:41:43.040Z,56.30
2019-03-05T13:44:44.551Z,55.80
2019-03-05T13:47:17.926Z,56.00
2019-03-05T13:49:59.829Z,54.90
2019-03-05T13:53:22.611Z,53.60
2019-03-05T13:56:12.986Z,52.50
2019-03-05T13:59:31.631Z,53.30
2019-03-05T14:02:03.126Z,53.50
2019-03-05T14:04:40.496Z,53.70
2019-03-05T14:07:50.165Z,52.60
2019-03-05T14:10:40.234Z,52.60
2019-03-05T14:13:09.311Z,52.30
2019-03-05T14:15:41.709Z,53.00
2019-03-05T14:18:10.796Z,53.70
2019-03-05T14:20:42.270Z,54.40
2019-03-05T14:23:17.308Z,55.10
2019-03-05T14:25:46.290Z,54.90
2019-03-05T14:28:19.575Z,54.60
2019-03-05T14:30:50.615Z,54.40
2019-03-05T14:33:21.425Z,53.60
2019-03-05T14:35:50.549Z,55.00
2019-03-05T14:38:20.211Z,55.00
2019-03-05T14:40:51.530Z,55.10
2019-03-05T14:43:21.517Z,55.10
2019-03-05T14:45:53.157Z,55.40
2019-03-05T14:48:24.201Z,55.80
2019-03-05T14:50:57.433Z,56.20
2019-03-05T14:53:26.504Z,57.10
2019-03-05T14:56:14.833Z,58.00
2019-03-05T14:59:11.848Z,57.90
2019-03-05T15:01:43.390Z,57.20
2019-03-05T15:04:13.019Z,57.60
2019-03-05T15:06:42.901Z,57.50
2019-03-05T15:09:13.110Z,57.10
2019-03-05T15:11:44.105Z,57.00
2019-03-05T15:14:13.161Z,57.30
2019-03-05T15:16:42.199Z,57.70
2019-03-05T15:19:20.944Z,56.80
2019-03-05T15:21:42.937Z,57.00
2019-03-05T15:24:22.791Z,58.20
2019-03-05T15:26:57.072Z,57.30
2019-03-05T15:29:26.107Z,57.40
2019-03-05T15:31:55.442Z,58.10
2019-03-05T15:34:26.053Z,57.80
2019-03-05T15:37:37.487Z,58.70
2019-03-05T15:40:11.314Z,59.60
2019-03-05T15:43:04.372Z,60.10
2019-03-05T15:45:33.360Z,60.50
2019-03-05T15:51:17.195Z,62.80
2019-03-05T15:56:16.387Z,64.50
2019-03-05T15:58:45.250Z,65.00
2019-03-05T16:01:22.032Z,67.60
2019-03-05T16:03:46.231Z,70.10
2019-03-05T16:06:15.218Z,71.80
2019-03-05T16:08:44.137Z,74.20
2019-03-05T16:11:13.085Z,74.80
2019-03-05T16:13:41.937Z,75.20
2019-03-05T16:16:11.693Z,77.10
2019-03-05T16:18:40.653Z,76.70
2019-03-05T16:21:09.592Z,77.30
2019-03-05T16:23:38.773Z,78.70
2019-03-05T16:26:07.896Z,79.60
2019-03-05T16:28:39.204Z,79.10
2019-03-05T16:31:26.129Z,80.10
2019-03-05T16:34:01.998Z,80.50
2019-03-05T16:36:52.787Z,81.80
2019-03-05T16:39:50.188Z,82.70
2019-03-05T16:42:32.254Z,85.30
2019-03-05T16:45:06.882Z,87.70
2019-03-05T16:47:46.656Z,91.10
2019-03-05T16:50:26.270Z,95.00
2019-03-05T16:53:06.755Z,98.00
2019-03-05T16:56:10.128Z,99.90
2019-03-05T16:58:50.824Z,99.90
2019-03-05T17:01:41.717Z,99.90
2019-03-05T17:04:26.696Z,99.90
2019-03-05T17:07:14.942Z,99.90
2019-03-05T17:10:11.756Z,99.90
2019-03-05T17:12:40.734Z,99.90
2019-03-05T17:15:10.024Z,99.90
2019-03-05T17:17:38.940Z,99.90
2019-03-05T17:20:09.272Z,99.90
2019-03-05T17:22:38.249Z,99.90
2019-03-05T17:25:09.512Z,99.90
2019-03-05T17:27:38.605Z,99.90
2019-03-05T17:30:13.214Z,99.90
2019-03-05T17:32:42.140Z,99.90
2019-03-05T17:35:11.140Z,99.90
2019-03-05T17:37:40.137Z,99.90
2019-03-05T17:40:10.541Z,99.90
2019-03-05T17:42:39.540Z,99.90
2019-03-05T17:45:12.216Z,99.90
2019-03-05T17:47:41.217Z,99.90
2019-03-05T17:50:11.217Z,99.90
2019-03-05T17:52:40.219Z,99.90
2019-03-05T17:55:11.271Z,99.90
2019-03-05T17:57:40.121Z,99.90
2019-03-05T18:00:10.985Z,99.90
2019-03-05T18:02:39.884Z,99.90
2019-03-05T18:05:08.931Z,99.90
2019-03-05T18:07:37.857Z,99.90
2019-03-05T18:10:07.662Z,99.90
2019-03-05T18:12:36.933Z,99.90
2019-03-05T18:15:06.989Z,99.90
2019-03-05T18:17:36.020Z,99.90
2019-03-05T18:20:07.145Z,99.90
2019-03-05T18:22:36.016Z,99.90
2019-03-05T18:25:06.881Z,99.90
2019-03-05T18:27:35.736Z,99.90
2019-03-05T18:30:07.513Z,99.90
2019-03-05T18:32:37.133Z,99.90
2019-03-05T18:35:06.360Z,99.90
2019-03-05T18:37:35.278Z,99.90
2019-03-05T18:40:04.537Z,99.90
2019-03-05T18:42:38.374Z,99.90
2019-03-05T18:45:10.858Z,99.90
2019-03-05T18:47:40.409Z,99.90
2019-03-05T18:50:09.878Z,99.90
2019-03-05T18:52:38.858Z,99.90
2019-03-05T18:55:08.985Z,99.90
2019-03-05T18:57:37.858Z,99.90
2019-03-05T19:00:08.603Z,99.90
2019-03-05T19:02:37.684Z,99.90
2019-03-05T19:05:07.553Z,99.90
2019-03-05T19:07:38.748Z,99.90
2019-03-05T19:10:10.786Z,99.90
2019-03-05T19:12:39.718Z,99.90
2019-03-05T19:15:10.133Z,99.90
2019-03-05T19:17:39.148Z,99.90
2019-03-05T19:20:10.762Z,99.90
2019-03-05T19:22:39.696Z,99.90
2019-03-05T19:25:10.897Z,99.90
2019-03-05T19:27:39.842Z,99.90
2019-03-05T19:30:11.208Z,99.90
2019-03-05T19:32:40.526Z,99.90
2019-03-05T19:35:09.693Z,99.90
2019-03-05T19:37:39.825Z,99.90
2019-03-05T19:40:11.004Z,99.90
2019-03-05T19:42:39.973Z,99.90
2019-03-05T19:45:10.021Z,99.90
2019-03-05T19:47:38.958Z,99.90
2019-03-05T19:50:09.851Z,99.90
2019-03-05T19:52:38.718Z,99.90
2019-03-05T19:55:09.362Z,99.90
2019-03-05T19:57:38.316Z,99.90
2019-03-05T20:00:11.629Z,99.90
2019-03-05T20:02:41.425Z,99.90
2019-03-05T20:05:11.873Z,99.90
2019-03-05T20:07:40.978Z,99.90
2019-03-05T20:10:12.021Z,99.90
2019-03-05T20:12:43.668Z,99.90
2019-03-05T20:15:18.529Z,99.90
2019-03-05T20:17:48.189Z,99.90
2019-03-05T20:20:17.537Z,99.90
2019-03-05T20:22:46.553Z,99.90
2019-03-05T20:25:17.371Z,99.90
2019-03-05T20:27:46.418Z,99.90
2019-03-05T20:30:17.777Z,99.90
2019-03-05T20:32:47.065Z,99.90
2019-03-05T20:35:17.409Z,99.90
2019-03-05T20:37:46.708Z,99.90
2019-03-05T20:40:41.785Z,99.90
2019-03-05T20:43:10.898Z,99.90
2019-03-05T20:45:41.121Z,99.90
2019-03-05T20:48:11.646Z,99.90
2019-03-05T20:50:49.576Z,99.90
2019-03-05T20:53:18.614Z,99.90
2019-03-05T20:55:49.584Z,99.90
2019-03-05T20:58:18.562Z,99.90
2019-03-05T21:00:47.874Z,99.90
2019-03-05T21:03:16.839Z,99.90
2019-03-05T21:05:45.977Z,99.90
2019-03-05T21:08:15.014Z,99.90
2019-03-05T21:10:44.108Z,99.90
2019-03-05T21:13:13.144Z,99.90
2019-03-05T21:15:42.092Z,99.90
2019-03-05T21:18:11.041Z,99.90
2019-03-05T21:20:39.957Z,99.90
2019-03-05T21:23:08.952Z,99.90
2019-03-05T21:25:38.004Z,99.90
2019-03-05T21:28:06.923Z,99.90
2019-03-05T21:30:36.096Z,99.90
2019-03-05T21:33:05.108Z,99.90
2019-03-05T21:35:33.940Z,99.90
2019-03-05T21:38:02.944Z,99.90
2019-03-05T21:40:31.804Z,99.90
2019-03-05T21:43:00.811Z,99.90
2019-03-05T21:45:34.737Z,99.90
2019-03-05T21:48:04.318Z,99.90
2019-03-05T21:50:33.253Z,99.90
2019-03-05T21:53:02.262Z,99.90
2019-03-05T21:55:31.193Z,99.90
2019-03-05T21:58:00.116Z,99.90
2019-03-05T22:00:29.986Z,99.90
2019-03-05T22:02:59.520Z,99.90
2019-03-05T22:05:28.620Z,99.90
2019-03-05T22:07:57.616Z,99.90
2019-03-05T22:10:26.601Z,99.90
2019-03-05T22:12:55.589Z,99.90
2019-03-05T22:15:24.636Z,99.90
2019-03-05T22:17:53.716Z,99.90
2019-03-05T22:20:23.101Z,99.90
2019-03-05T22:22:52.101Z,99.90
2019-03-05T22:25:21.096Z,99.90
2019-03-05T22:27:50.273Z,99.90
2019-03-05T22:30:21.528Z,99.90
2019-03-05T22:32:50.534Z,99.90
2019-03-05T22:35:19.705Z,99.90
2019-03-05T22:37:48.637Z,99.90
2019-03-05T22:40:17.757Z,99.90
2019-03-05T22:42:46.684Z,99.90
2019-03-05T22:45:17.750Z,99.90
2019-03-05T22:47:47.005Z,99.90
2019-03-05T22:50:16.232Z,99.90
2019-03-05T22:52:45.157Z,99.90
2019-03-05T22:55:14.418Z,99.90
2019-03-05T22:57:43.441Z,99.90
2019-03-05T23:00:55.421Z,99.90
2019-03-05T23:03:24.783Z,99.90
2019-03-05T23:05:54.053Z,99.90
2019-03-05T23:08:23.089Z,99.90
2019-03-05T23:10:52.304Z,99.90
2019-03-05T23:13:21.501Z,99.90
2019-03-05T23:15:50.839Z,99.90
2019-03-05T23:18:20.463Z,99.90
2019-03-05T23:20:49.396Z,99.90
2019-03-05T23:23:19.132Z,99.90
2019-03-05T23:25:48.171Z,99.90
2019-03-05T23:28:17.111Z,99.90
2019-03-05T23:30:46.098Z,99.90
2019-03-05T23:33:15.143Z,99.90
2019-03-05T23:35:44.097Z,99.90
2019-03-05T23:38:13.093Z,99.90
2019-03-05T23:40:42.122Z,99.90
2019-03-05T23:43:11.170Z,99.90
2019-03-05T23:45:40.181Z,99.90
2019-03-05T23:48:09.105Z,99.90
2019-03-05T23:50:38.020Z,99.90
2019-03-05T23:53:06.908Z,99.90
2019-03-05T23:55:36.093Z,99.90
2019-03-05T23:58:05.094Z,99.90
